Flight Track Log - Related Links

Times and Time Zones

All times are in EDT time to prevent confusion due to time zone crossing. See the UAL4305 flight status page for this flight to view local times or setup timezone preferences in your user account.

Time Position Orientation Groundspeed Altitude Reporting Facility
EDT Latitude Longitude Course Direction KTS MPH feet Rate Location/Type
Sun 08:21:08 AM 27.7436 -97.4758 41° Northeast 155 178 1,700  Level Houston Center
Sun 08:22:03 AM 27.7214 -97.4269 117° Southeast 205 236 3,600 1,927 Climbing Houston Center
Sun 08:22:57 AM 27.7678 -97.3867 38° Northeast 269 310 5,200 2,105 Climbing Houston Center
Sun 08:23:57 AM 27.8403 -97.3583 19° North 274 315 7,600 2,380 Climbing Houston Center
Sun 08:24:00 AM 27.9510 -97.3892 35° Northeast  Level FlightAware Approximate
Sun 08:24:58 AM 27.9136 -97.3283 20° North 278 320 10,000  Level Houston Center
Sun 08:25:00 AM 28.0018 -97.3482 41° Northeast  Level FlightAware Approximate
Sun 08:25:59 AM 27.9975 -97.2989 17° North 293 337 11,300  Level Houston Center
Sun 08:26:00 AM 28.0486 -97.3015 41° Northeast  Level FlightAware Approximate
Sun 08:26:59 AM 28.0817 -97.2631 21° North 317 365 13,800  Level Houston Center
Sun 08:28:00 AM 28.1617 -97.2086 31° Northeast 333 383 15,500 1,525 Climbing Houston Center
Sun 08:29:01 AM 28.2397 -97.1392 38° Northeast 354 407 16,900 689 Climbing Houston Center
Sun 08:30:02 AM 28.3175 -97.0675 39° Northeast 360 414 16,900 50 Level Houston Center
Sun 08:31:02 AM 28.4003 -97.0253 24° Northeast 346 398 17,000  Climbing Houston Center
Sun 08:32:03 AM 28.4886 -97.0347 355° North 326 375 16,900  Descending Houston Center
Sun 08:33:04 AM 28.5794 -97.0469 353° North 326 375 17,000  Climbing Houston Center
Sun 08:34:05 AM 28.6706 -97.0606 353° North 329 379 16,900 -49 Descending Houston Center
Sun 08:35:06 AM 28.7797 -97.0786 352° North 329 379 16,900 49 Level Houston Center
Sun 08:36:07 AM 28.8694 -97.0942 351° North 325 374 17,000  Climbing Houston Center
Sun 08:37:08 AM 28.9558 -97.1119 350° North 318 366 16,900  Descending Houston Center
Sun 08:38:08 AM 29.0425 -97.0928 11° North 338 389 17,000 50 Climbing Houston Center
Sun 08:39:09 AM 29.1025 -96.9892 56° Northeast 395 455 17,000 -49 Level Houston Center
Sun 08:40:10 AM 29.1633 -96.8769 58° Northeast 417 480 16,900 -49 Descending Houston Center
Sun 08:41:11 AM 29.2233 -96.7644 59° Northeast 423 487 16,900  Level Houston Center
Sun 08:42:12 AM 29.2847 -96.6517 58° Northeast 426 490 16,900 -443 Level Houston Center
Sun 08:43:13 AM 29.3467 -96.5383 58° Northeast 425 489 16,000 -1,143 Descending Houston Center
Sun 08:43:36 AM 29.3789 -96.4775 59° Northeast 425 489 15,300 -1,585 Descending Houston Center
Sun 08:44:06 AM 29.4081 -96.4242 58° Northeast 420 483 14,600 -1,553 Descending Houston Center
Sun 08:45:01 AM 29.4622 -96.3222 59° Northeast 405 466 13,100 -1,279 Descending Houston Center
Sun 08:46:08 AM 29.5236 -96.2050 59° Northeast 361 415 12,000 -656 Descending Houston Center
Sun 08:47:09 AM 29.5761 -96.1056 59° Northeast 361 415 11,700 -639 Descending Houston Center
Sun 08:48:10 AM 29.6281 -96.0036 60° Northeast 354 407 10,700 -793 Descending Houston Center
Sun 08:49:10 AM 29.6744 -95.9094 60° Northeast 327 376 10,100 -541 Descending Houston Center
Sun 08:50:12 AM 29.7192 -95.8225 59° Northeast 315 362 9,600 -1,033 Descending Houston Center
Sun 08:51:12 AM 29.7639 -95.7333 60° Northeast 308 354 8,000 -1,488 Descending Houston Center
Sun 08:52:13 AM 29.8050 -95.6539 59° Northeast 285 328 6,600 -934 Descending Houston Center
Sun 08:53:14 AM 29.8439 -95.5722 61° Northeast 280 322 6,100 -295 Descending Houston Center
Sun 08:54:15 AM 29.8831 -95.4928 60° Northeast 287 330 6,000 -49 Descending Houston Center
Sun 08:55:16 AM 29.8964 -95.4092 80° East 252 290 6,000 46 Level Houston Center
Sun 08:56:25 AM 29.8964 -95.3203 90° East 248 285 6,100 49 Climbing Houston Center
Sun 08:57:18 AM 29.8961 -95.2456 90° East 250 288 6,100 -261 Level Houston Center
Sun 08:58:20 AM 29.8969 -95.1658 89° East 249 287 5,600 -732 Descending Houston Center
Sun 08:59:21 AM 29.8958 -95.0864 91° East 248 285 4,600 -1,082 Descending Houston Center
Sun 09:00:22 AM 29.8964 -95.0019 90° East 252 290 3,400 -787 Descending Houston Center
Sun 09:01:23 AM 29.8972 -94.9222 89° East 238 274 3,000 -197 Descending Houston Center
Sun 09:02:24 AM 29.9494 -94.8964 23° Northeast 226 260 3,000  Level Houston Center
Sun 09:03:25 AM 29.9761 -94.9558 297° West 210 242 3,000  Level Houston Center
Sun 09:04:26 AM 29.9767 -95.0281 271° West 214 246 3,000  Level Houston Center
Sun 09:05:27 AM 29.9761 -95.0908 269° West 191 220 3,000 -148 Level Houston Center
Sun 09:06:28 AM 29.9775 -95.1511 272° West 185 213 2,700 -590 Descending Houston Center
Sun 09:07:29 AM 29.9786 -95.2089 271° West 178 205 1,800 -885 Descending Houston Center

Login

Don't have an account? Register now (free) for customized features, flight alerts, and more!